createdAt,value
2023-04-11T00:01:46.622Z,60.99
2023-04-11T00:04:14.981Z,60.37
2023-04-11T00:06:42.175Z,59.42
2023-04-11T00:09:10.797Z,59.12
2023-04-11T00:11:37.363Z,59.42
2023-04-11T00:14:05.536Z,58.95
2023-04-11T00:16:34.012Z,58.62
2023-04-11T00:19:03.587Z,58.98
2023-04-11T00:21:33.706Z,58.32
2023-04-11T00:24:00.399Z,58.58
2023-04-11T00:26:27.294Z,58.38
2023-04-11T00:28:54.454Z,58.92
2023-04-11T00:31:21.353Z,58.50
2023-04-11T00:33:47.953Z,58.36
2023-04-11T00:36:19.588Z,58.54
2023-04-11T00:38:48.857Z,58.06
2023-04-11T00:41:20.453Z,58.49
2023-04-11T00:43:49.882Z,58.27
2023-04-11T00:46:17.266Z,58.35
2023-04-11T00:48:43.954Z,58.74
2023-04-11T00:51:10.589Z,58.83
2023-04-11T00:53:41.963Z,58.82
2023-04-11T00:56:08.982Z,58.48
2023-04-11T00:58:37.799Z,58.88
2023-04-11T01:01:09.173Z,58.72
2023-04-11T01:03:37.543Z,58.54
2023-04-11T01:06:06.932Z,58.39
2023-04-11T01:08:34.102Z,58.45
2023-04-11T01:11:01.023Z,58.53
2023-04-11T01:13:27.823Z,59.04
2023-04-11T01:15:54.492Z,58.81
2023-04-11T01:18:21.144Z,59.16
2023-04-11T01:20:47.737Z,61.00
2023-04-11T01:23:14.316Z,62.01
2023-04-11T01:25:41.265Z,60.55
2023-04-11T01:28:08.845Z,60.04
2023-04-11T01:30:35.667Z,60.04
2023-04-11T01:33:02.366Z,60.08
2023-04-11T01:35:28.988Z,59.85
2023-04-11T01:37:55.745Z,59.82
2023-04-11T01:40:23.831Z,59.60
2023-04-11T01:42:51.546Z,59.96
2023-04-11T01:45:21.010Z,59.42
2023-04-11T01:47:49.599Z,59.73
2023-04-11T01:50:19.492Z,59.67
2023-04-11T01:52:46.268Z,59.74
2023-04-11T01:55:15.517Z,60.02
2023-04-11T01:57:44.582Z,60.05
2023-04-11T02:00:11.841Z,61.30
2023-04-11T02:02:46.375Z,60.43
2023-04-11T02:05:17.786Z,60.60
2023-04-11T02:07:45.156Z,60.19
2023-04-11T02:10:17.235Z,60.79
2023-04-11T02:12:43.978Z,60.75
2023-04-11T02:15:10.916Z,60.78
2023-04-11T02:17:37.550Z,61.24
2023-04-11T02:20:07.091Z,61.06
2023-04-11T02:22:36.598Z,60.73
2023-04-11T02:25:03.216Z,60.14
2023-04-11T02:27:32.838Z,60.49
2023-04-11T02:30:00.910Z,60.68
2023-04-11T02:32:30.462Z,61.70
2023-04-11T02:34:57.184Z,61.38
2023-04-11T02:37:26.130Z,61.18
2023-04-11T02:39:52.793Z,61.48
2023-04-11T02:42:21.855Z,60.93
2023-04-11T02:44:48.557Z,60.87
2023-04-11T02:47:18.937Z,60.92
2023-04-11T02:49:45.688Z,61.43
2023-04-11T02:52:18.275Z,61.49
2023-04-11T02:54:46.135Z,61.44
2023-04-11T02:57:15.324Z,61.58
2023-04-11T02:59:45.126Z,62.35
2023-04-11T03:02:14.937Z,61.88
2023-04-11T03:04:41.998Z,61.95
2023-04-11T03:07:15.229Z,62.03
2023-04-11T03:09:42.067Z,61.96
2023-04-11T03:12:09.028Z,61.59
2023-04-11T03:14:43.627Z,61.77
2023-04-11T03:17:10.177Z,61.12
2023-04-11T03:19:36.952Z,61.20
2023-04-11T03:22:07.813Z,61.00
2023-04-11T03:24:34.472Z,60.81
2023-04-11T03:27:01.869Z,61.10
2023-04-11T03:29:32.731Z,61.13
2023-04-11T03:32:11.828Z,60.41
2023-04-11T03:34:38.878Z,60.14
2023-04-11T03:37:10.447Z,60.05
2023-04-11T03:39:41.076Z,60.10
2023-04-11T03:42:07.759Z,59.88
2023-04-11T03:44:37.292Z,60.30
2023-04-11T03:47:03.951Z,60.07
2023-04-11T03:49:37.148Z,60.66
2023-04-11T03:52:05.127Z,60.50
2023-04-11T03:54:31.967Z,60.10
2023-04-11T03:56:59.543Z,60.23
2023-04-11T03:59:26.872Z,59.96
2023-04-11T04:01:58.928Z,59.97
2023-04-11T04:04:26.368Z,59.72
2023-04-11T04:07:06.872Z,60.25
2023-04-11T04:09:38.309Z,60.50
2023-04-11T04:12:07.707Z,60.72
2023-04-11T04:15:01.389Z,60.76
2023-04-11T04:17:30.863Z,60.92
2023-04-11T04:19:58.858Z,61.12
2023-04-11T04:22:26.634Z,60.47
2023-04-11T04:24:58.288Z,60.60
2023-04-11T04:27:30.316Z,60.59
2023-04-11T04:30:04.297Z,60.78
2023-04-11T04:32:55.007Z,60.72
2023-04-11T04:35:23.893Z,60.56
2023-04-11T04:37:51.053Z,60.63
2023-04-11T04:40:31.601Z,61.80
2023-04-11T04:43:09.158Z,61.51
2023-04-11T04:45:42.265Z,61.20
2023-04-11T04:48:12.762Z,61.51
2023-04-11T04:50:39.708Z,61.43
2023-04-11T04:53:08.994Z,61.20
2023-04-11T04:55:39.176Z,61.16
2023-04-11T04:58:06.907Z,60.87
2023-04-11T05:00:33.806Z,60.77
2023-04-11T05:03:05.775Z,61.06
2023-04-11T05:05:32.720Z,61.21
2023-04-11T05:08:01.141Z,61.21
2023-04-11T05:10:36.771Z,62.25
2023-04-11T05:13:05.562Z,62.01
2023-04-11T05:15:33.207Z,62.15
2023-04-11T05:18:02.418Z,62.06
2023-04-11T05:20:33.745Z,62.01
2023-04-11T05:23:00.913Z,62.17
2023-04-11T05:25:33.003Z,61.84
2023-04-11T05:28:03.189Z,61.58
2023-04-11T05:30:29.966Z,61.27
2023-04-11T05:32:56.618Z,61.03
2023-04-11T05:35:23.729Z,60.78
2023-04-11T05:37:53.180Z,60.49
2023-04-11T05:40:22.560Z,60.73
2023-04-11T05:42:49.191Z,61.19
2023-04-11T05:45:15.893Z,61.03
2023-04-11T05:47:45.277Z,60.64
2023-04-11T05:50:14.009Z,60.24
2023-04-11T05:52:44.288Z,59.86
2023-04-11T05:55:14.088Z,59.58
2023-04-11T05:57:43.055Z,59.47
2023-04-11T06:00:13.245Z,59.22
2023-04-11T06:02:42.059Z,58.74
2023-04-11T06:05:12.441Z,58.59
2023-04-11T06:07:39.645Z,58.87
2023-04-11T06:10:06.778Z,58.67
2023-04-11T06:12:33.357Z,57.86
2023-04-11T06:15:00.063Z,57.76
2023-04-11T06:17:26.910Z,58.28
2023-04-11T06:19:58.284Z,57.91
2023-04-11T06:22:24.911Z,57.79
2023-04-11T06:24:54.359Z,57.46
2023-04-11T06:27:21.010Z,58.16
2023-04-11T06:29:47.620Z,58.08
2023-04-11T06:32:16.846Z,58.33
2023-04-11T06:34:46.083Z,58.42
2023-04-11T06:37:12.834Z,58.11
2023-04-11T06:39:41.866Z,57.95
2023-04-11T06:42:08.736Z,57.95
2023-04-11T06:44:35.460Z,57.18
2023-04-11T06:47:04.466Z,57.25
2023-04-11T06:49:33.664Z,56.99
2023-04-11T06:52:00.363Z,57.40
2023-04-11T06:54:27.151Z,57.14
2023-04-11T06:56:53.996Z,57.31
2023-04-11T06:59:21.518Z,57.32
2023-04-11T07:01:48.834Z,56.90
2023-04-11T07:04:18.961Z,56.76
2023-04-11T07:06:46.464Z,56.47
2023-04-11T07:09:13.144Z,56.42
2023-04-11T07:11:39.824Z,55.74
2023-04-11T07:14:06.517Z,55.64
2023-04-11T07:16:35.413Z,55.29
2023-04-11T07:19:04.501Z,54.94
2023-04-11T07:21:33.708Z,54.64
2023-04-11T07:24:03.060Z,53.55
2023-04-11T07:26:32.841Z,52.97
2023-04-11T07:29:02.285Z,52.26
2023-04-11T07:31:31.945Z,51.24
2023-04-11T07:34:01.362Z,50.87
2023-04-11T07:36:28.378Z,50.74
2023-04-11T07:39:07.649Z,50.75
2023-04-11T07:41:43.114Z,49.71
2023-04-11T07:44:12.108Z,50.53
2023-04-11T07:46:41.556Z,50.18
2023-04-11T07:49:10.826Z,50.21
2023-04-11T07:51:37.567Z,50.39
2023-04-11T07:54:04.653Z,49.45
2023-04-11T07:56:31.281Z,49.24
2023-04-11T07:58:58.716Z,48.87
2023-04-11T08:01:25.926Z,49.02
2023-04-11T08:03:56.319Z,49.03
2023-04-11T08:06:26.664Z,49.01
2023-04-11T08:08:56.609Z,49.23
2023-04-11T08:11:23.363Z,49.45
2023-04-11T08:13:50.826Z,48.08
2023-04-11T08:16:17.724Z,47.43
2023-04-11T08:18:45.694Z,47.23
2023-04-11T08:21:12.595Z,48.06
2023-04-11T08:23:42.734Z,48.24
2023-04-11T08:26:09.957Z,46.99
2023-04-11T08:28:40.015Z,48.00
2023-04-11T08:31:12.729Z,47.71
2023-04-11T08:33:42.330Z,47.33
2023-04-11T08:36:10.331Z,47.47
2023-04-11T08:38:40.067Z,47.27
2023-04-11T08:41:06.893Z,46.71
2023-04-11T08:43:34.029Z,46.35
2023-04-11T08:46:06.192Z,46.44
2023-04-11T08:48:35.640Z,46.97
2023-04-11T08:51:02.485Z,45.93
2023-04-11T08:53:29.310Z,45.58
2023-04-11T08:56:00.019Z,45.82
2023-04-11T08:58:29.011Z,46.61
2023-04-11T09:00:56.060Z,46.28
2023-04-11T09:03:22.894Z,46.07
2023-04-11T09:05:52.458Z,45.95
2023-04-11T09:08:21.474Z,45.69
2023-04-11T09:10:48.233Z,46.45
2023-04-11T09:13:29.014Z,45.89
2023-04-11T09:16:09.513Z,45.19
2023-04-11T09:18:36.579Z,45.65
2023-04-11T09:21:04.438Z,45.99
2023-04-11T09:23:33.936Z,46.59
2023-04-11T09:26:01.384Z,45.73
2023-04-11T09:28:39.096Z,45.98
2023-04-11T09:31:05.990Z,46.01
2023-04-11T09:33:37.416Z,45.59
2023-04-11T09:36:17.828Z,45.75
2023-04-11T09:38:47.326Z,46.01
2023-04-11T09:41:16.637Z,46.10
2023-04-11T09:43:53.135Z,46.36
2023-04-11T09:46:22.253Z,46.87
2023-04-11T09:48:49.101Z,46.88
2023-04-11T09:51:31.937Z,46.89
2023-04-11T09:54:04.211Z,45.05
2023-04-11T09:56:34.539Z,45.20
2023-04-11T10:21:38.017Z,44.49
2023-04-11T10:24:17.010Z,44.08
2023-04-11T10:30:46.490Z,42.82
2023-04-11T10:33:17.664Z,42.60
2023-04-11T10:36:03.895Z,40.84
2023-04-11T10:38:37.040Z,41.11
2023-04-11T10:41:27.668Z,39.81
2023-04-11T10:44:13.688Z,40.63
2023-04-11T10:46:47.818Z,40.08
2023-04-11T10:49:36.791Z,39.32
2023-04-11T10:52:22.941Z,39.67
2023-04-11T10:54:50.743Z,38.96
2023-04-11T10:57:17.893Z,40.16
2023-04-11T10:59:44.629Z,40.40
2023-04-11T11:02:13.873Z,40.20
2023-04-11T11:04:41.238Z,38.91
2023-04-11T11:07:08.453Z,38.27
2023-04-11T11:09:35.660Z,39.54
2023-04-11T11:12:12.856Z,37.68
2023-04-11T11:14:40.390Z,37.67
2023-04-11T11:17:07.364Z,38.57
2023-04-11T11:19:34.755Z,39.40
2023-04-11T11:22:05.130Z,38.86
2023-04-11T11:24:31.973Z,38.35
2023-04-11T11:27:03.703Z,37.73
2023-04-11T11:29:32.200Z,39.04
2023-04-11T11:32:03.906Z,37.95
2023-04-11T11:34:34.459Z,37.99
2023-04-11T11:37:01.874Z,37.61
2023-04-11T11:39:28.570Z,36.00
2023-04-11T11:41:57.870Z,36.89
2023-04-11T11:44:25.415Z,36.29
2023-04-11T11:47:01.565Z,37.04
2023-04-11T11:49:31.265Z,36.59
2023-04-11T11:52:02.850Z,35.65
2023-04-11T11:54:29.540Z,36.01
2023-04-11T11:56:58.600Z,34.53
2023-04-11T11:59:28.230Z,32.02
2023-04-11T12:01:54.895Z,32.27
2023-04-11T12:04:24.261Z,33.48
2023-04-11T12:06:50.996Z,34.63
2023-04-11T12:09:17.684Z,35.67
2023-04-11T12:11:47.034Z,33.90
2023-04-11T12:14:22.096Z,35.80
2023-04-11T12:16:48.728Z,34.49
2023-04-11T12:19:15.590Z,33.91
2023-04-11T12:21:42.518Z,33.28
2023-04-11T12:24:11.939Z,32.79
2023-04-11T12:26:45.594Z,31.36
2023-04-11T12:29:21.932Z,31.78
2023-04-11T12:31:48.766Z,32.36
2023-04-11T12:34:15.680Z,31.14
2023-04-11T12:36:44.903Z,31.00
2023-04-11T12:39:11.730Z,31.99
2023-04-11T12:41:38.482Z,30.11
2023-04-11T12:44:07.530Z,30.12
2023-04-11T12:46:34.411Z,31.05
2023-04-11T12:49:03.279Z,30.87
2023-04-11T12:51:34.478Z,31.66
2023-04-11T12:54:04.072Z,31.79
2023-04-11T12:56:30.799Z,33.05
2023-04-11T12:58:57.599Z,33.38
2023-04-11T13:01:24.640Z,33.07
2023-04-11T13:03:52.192Z,33.32
2023-04-11T13:06:19.668Z,33.33
2023-04-11T13:08:49.470Z,33.91
2023-04-11T13:11:18.588Z,33.37
2023-04-11T13:13:45.492Z,32.77
2023-04-11T13:16:12.462Z,33.63
2023-04-11T13:18:39.253Z,34.37
2023-04-11T13:21:06.055Z,34.27
2023-04-11T13:23:35.226Z,34.06
2023-04-11T13:26:02.314Z,33.80
2023-04-11T13:28:29.349Z,34.84
2023-04-11T13:30:56.427Z,35.19
2023-04-11T13:33:31.289Z,35.15
2023-04-11T13:36:03.246Z,34.92
2023-04-11T13:38:29.961Z,34.74
2023-04-11T13:40:56.726Z,33.97
2023-04-11T13:43:25.776Z,34.67
2023-04-11T13:45:55.278Z,34.38
2023-04-11T13:48:27.302Z,34.20
2023-04-11T13:50:57.542Z,34.34
2023-04-11T13:53:24.491Z,34.77
2023-04-11T13:55:54.142Z,34.74
2023-04-11T13:58:23.625Z,34.47
2023-04-11T14:00:52.842Z,32.87
2023-04-11T14:03:19.706Z,31.89
2023-04-11T14:05:49.030Z,31.90
2023-04-11T14:08:17.005Z,32.94
2023-04-11T14:10:48.787Z,33.30
2023-04-11T14:13:17.875Z,33.20
2023-04-11T14:15:49.631Z,33.24
2023-04-11T14:18:18.765Z,34.00
2023-04-11T14:20:45.402Z,34.03
2023-04-11T14:23:13.857Z,34.37
2023-04-11T14:25:45.732Z,34.80
2023-04-11T14:28:13.575Z,35.11
2023-04-11T14:30:42.657Z,34.92
2023-04-11T14:33:09.408Z,36.41
2023-04-11T14:35:36.205Z,37.00
2023-04-11T14:38:07.766Z,37.88
2023-04-11T14:40:34.429Z,38.19
2023-04-11T14:43:04.297Z,39.53
2023-04-11T14:45:33.328Z,40.58
2023-04-11T14:48:04.959Z,40.87
2023-04-11T14:50:32.321Z,41.68
2023-04-11T14:52:59.037Z,41.49
2023-04-11T14:55:25.780Z,41.66
2023-04-11T14:57:55.664Z,41.86
2023-04-11T15:00:25.146Z,42.56
2023-04-11T15:02:53.595Z,43.91
2023-04-11T15:05:23.398Z,44.69
2023-04-11T15:07:53.094Z,45.16
2023-04-11T15:10:23.706Z,46.67
2023-04-11T15:12:50.560Z,47.54
2023-04-11T15:15:19.553Z,47.10
2023-04-11T15:17:49.256Z,48.89
2023-04-11T15:20:16.759Z,49.82
2023-04-11T15:22:46.849Z,50.71
2023-04-11T15:25:14.725Z,53.68
2023-04-11T15:27:41.936Z,55.78
2023-04-11T15:30:09.030Z,58.75
2023-04-11T15:32:41.757Z,61.62
2023-04-11T15:35:10.820Z,62.82
2023-04-11T15:37:39.694Z,65.42
2023-04-11T15:40:06.982Z,66.66
2023-04-11T15:42:37.590Z,67.86
2023-04-11T15:45:04.839Z,68.23
2023-04-11T15:47:31.583Z,70.30
2023-04-11T15:50:02.429Z,70.81
2023-04-11T15:52:35.739Z,71.77
2023-04-11T15:55:09.671Z,73.02
2023-04-11T15:57:45.905Z,73.17
2023-04-11T16:00:34.860Z,73.72
2023-04-11T16:03:04.943Z,73.51
2023-04-11T16:05:32.762Z,73.38
2023-04-11T16:07:59.735Z,72.00
2023-04-11T16:10:26.917Z,71.62
2023-04-11T16:12:53.816Z,71.28
2023-04-11T16:15:20.776Z,70.79
2023-04-11T16:17:47.719Z,70.88
2023-04-11T16:20:18.976Z,69.97
2023-04-11T16:22:46.707Z,68.95
2023-04-11T16:25:16.386Z,68.85
2023-04-11T16:27:43.845Z,68.41
2023-04-11T16:30:11.109Z,68.52
2023-04-11T16:32:40.149Z,68.14
2023-04-11T16:35:07.320Z,67.31
2023-04-11T16:37:39.000Z,66.74
2023-04-11T16:40:11.777Z,66.04
2023-04-11T16:42:39.141Z,65.30
2023-04-11T16:45:06.980Z,64.87
2023-04-11T16:47:36.541Z,64.38
2023-04-11T16:50:08.494Z,64.07
2023-04-11T16:52:35.100Z,64.58
2023-04-11T16:55:03.265Z,64.72
2023-04-11T16:57:35.559Z,64.18
2023-04-11T17:00:10.803Z,62.87
2023-04-11T17:02:37.736Z,62.47
2023-04-11T17:05:06.980Z,62.29
2023-04-11T17:07:36.777Z,61.53
2023-04-11T17:10:07.076Z,60.98
2023-04-11T17:12:39.636Z,61.17
2023-04-11T17:15:08.571Z,60.86
2023-04-11T17:17:37.621Z,60.84
2023-04-11T17:20:09.539Z,61.25
2023-04-11T17:22:41.452Z,61.15
2023-04-11T17:25:11.469Z,61.29
2023-04-11T17:27:38.127Z,61.42
2023-04-11T17:30:12.497Z,61.07
2023-04-11T17:32:39.291Z,61.09
2023-04-11T17:35:06.786Z,60.54
2023-04-11T17:37:34.066Z,61.45
2023-04-11T17:40:13.556Z,61.52
2023-04-11T17:42:46.030Z,61.12
2023-04-11T17:45:18.792Z,60.83
2023-04-11T17:47:48.995Z,60.68
2023-04-11T17:50:15.812Z,60.96
2023-04-11T17:52:50.129Z,61.39
2023-04-11T17:55:24.300Z,61.56
2023-04-11T17:57:51.689Z,61.17
2023-04-11T18:00:23.394Z,60.51
2023-04-11T18:02:52.449Z,61.86
2023-04-11T18:05:23.591Z,61.76
2023-04-11T18:07:52.348Z,62.44
2023-04-11T18:10:22.150Z,62.81
2023-04-11T18:12:49.865Z,62.67
2023-04-11T18:15:16.866Z,62.36
2023-04-11T18:17:46.556Z,62.01
2023-04-11T18:20:14.220Z,61.91
2023-04-11T18:22:49.332Z,62.66
2023-04-11T18:25:16.477Z,62.74
2023-04-11T18:27:45.720Z,62.90
2023-04-11T18:30:13.037Z,62.94
2023-04-11T18:32:45.197Z,63.73
2023-04-11T18:35:16.260Z,63.87
2023-04-11T18:37:44.091Z,63.63
2023-04-11T18:40:14.426Z,63.48
2023-04-11T18:42:47.765Z,63.57
2023-04-11T18:45:23.078Z,64.09
2023-04-11T18:47:50.881Z,63.39
2023-04-11T18:50:18.780Z,63.54
2023-04-11T18:52:54.971Z,63.58
2023-04-11T18:55:25.521Z,63.61
2023-04-11T18:57:56.620Z,63.86
2023-04-11T19:00:26.186Z,64.66
2023-04-11T19:02:53.593Z,64.90
2023-04-11T19:05:21.306Z,64.99
2023-04-11T19:07:48.335Z,64.93
2023-04-11T19:10:15.737Z,65.17
2023-04-11T19:12:42.893Z,65.28
2023-04-11T19:15:11.955Z,65.48
2023-04-11T19:17:39.187Z,66.55
2023-04-11T19:20:29.259Z,66.05
2023-04-11T19:22:56.376Z,65.53
2023-04-11T19:25:23.266Z,65.33
2023-04-11T19:27:51.255Z,65.06
2023-04-11T19:30:18.086Z,64.57
2023-04-11T19:32:48.804Z,64.37
2023-04-11T19:35:15.482Z,64.00
2023-04-11T19:37:42.932Z,64.16
2023-04-11T19:40:15.737Z,64.53
2023-04-11T19:42:43.260Z,64.50
2023-04-11T19:45:10.739Z,64.28
2023-04-11T19:47:43.719Z,64.39
2023-04-11T19:50:22.509Z,64.12
2023-04-11T19:52:49.239Z,64.10
2023-04-11T19:55:16.077Z,63.97
2023-04-11T20:00:37.754Z,63.19
2023-04-11T20:03:08.071Z,63.15
2023-04-11T20:05:37.047Z,63.19
2023-04-11T20:08:03.798Z,63.33
2023-04-11T20:10:30.782Z,63.01
2023-04-11T20:12:57.625Z,62.96
2023-04-11T20:15:36.910Z,62.88
2023-04-11T20:18:06.545Z,62.68
2023-04-11T20:20:33.959Z,62.79
2023-04-11T20:23:04.998Z,62.82
2023-04-11T20:25:35.082Z,63.13
2023-04-11T20:28:02.167Z,62.80
2023-04-11T20:30:30.065Z,62.82
2023-04-11T20:32:56.829Z,62.94
2023-04-11T20:35:23.848Z,63.04
2023-04-11T20:37:51.163Z,63.02
2023-04-11T20:40:25.159Z,63.21
2023-04-11T20:42:51.973Z,63.13
2023-04-11T20:45:21.950Z,62.95
2023-04-11T20:47:52.895Z,63.50
2023-04-11T20:50:22.995Z,64.06
2023-04-11T20:52:54.317Z,63.91
2023-04-11T20:55:21.226Z,63.76
2023-04-11T20:57:48.046Z,63.57
2023-04-11T21:00:17.672Z,63.31
2023-04-11T21:02:45.951Z,63.62
2023-04-11T21:05:15.287Z,63.07
2023-04-11T21:07:42.332Z,62.83
2023-04-11T21:10:09.548Z,62.58
2023-04-11T21:12:36.500Z,62.66
2023-04-11T21:15:04.044Z,62.77
2023-04-11T21:17:39.610Z,62.81
2023-04-11T21:20:11.335Z,62.89
2023-04-11T21:22:40.301Z,62.83
2023-04-11T21:25:10.206Z,62.81
2023-04-11T21:27:40.963Z,62.72
2023-04-11T21:30:12.891Z,62.56
2023-04-11T21:32:44.402Z,62.35
2023-04-11T21:35:11.758Z,62.78
2023-04-11T21:37:40.810Z,62.39
2023-04-11T21:40:07.888Z,62.64
2023-04-11T21:42:34.749Z,62.88
2023-04-11T21:45:01.436Z,62.97
2023-04-11T21:47:31.641Z,62.67
2023-04-11T21:49:58.531Z,62.39
2023-04-11T21:52:30.218Z,62.44
2023-04-11T21:55:07.238Z,62.84
2023-04-11T21:57:35.403Z,62.61
2023-04-11T22:00:04.903Z,62.69
2023-04-11T22:02:38.875Z,62.74
2023-04-11T22:05:07.488Z,63.26
2023-04-11T22:07:48.480Z,63.43
2023-04-11T22:10:22.579Z,64.08
2023-04-11T22:12:57.927Z,64.33
2023-04-11T22:15:27.515Z,64.14
2023-04-11T22:17:56.824Z,64.46
2023-04-11T22:20:28.737Z,64.77
2023-04-11T22:22:58.716Z,65.09
2023-04-11T22:25:25.957Z,65.41
2023-04-11T22:27:56.406Z,65.79
2023-04-11T22:30:24.483Z,66.63
2023-04-11T22:32:55.650Z,66.25
2023-04-11T22:35:26.156Z,66.35
2023-04-11T22:37:55.391Z,66.13
2023-04-11T22:40:27.442Z,66.78
2023-04-11T22:42:56.554Z,67.06
2023-04-11T22:45:23.759Z,66.95
2023-04-11T22:47:56.839Z,67.16
2023-04-11T22:50:23.643Z,67.61
2023-04-11T22:52:54.741Z,67.88
2023-04-11T22:55:26.366Z,68.31
2023-04-11T22:57:53.231Z,68.15
2023-04-11T23:00:22.002Z,68.45
2023-04-11T23:02:48.690Z,68.38
2023-04-11T23:05:17.996Z,68.10
2023-04-11T23:07:44.676Z,68.53
2023-04-11T23:10:14.293Z,68.91
2023-04-11T23:12:41.601Z,68.93
2023-04-11T23:15:13.832Z,69.43
2023-04-11T23:17:41.438Z,69.43
2023-04-11T23:20:12.486Z,69.17
2023-04-11T23:22:42.459Z,69.12
2023-04-11T23:25:12.106Z,68.92
2023-04-11T23:27:38.832Z,69.16
2023-04-11T23:30:11.860Z,68.97
2023-04-11T23:32:39.079Z,69.05
2023-04-11T23:35:08.335Z,69.11
2023-04-11T23:37:37.198Z,68.84
2023-04-11T23:40:11.117Z,68.88
2023-04-11T23:42:40.273Z,68.86
2023-04-11T23:45:07.507Z,69.11
2023-04-11T23:47:40.698Z,69.13
2023-04-11T23:50:09.724Z,69.13
2023-04-11T23:52:36.377Z,69.34
2023-04-11T23:55:06.256Z,69.30
